createdAt,value
2022-11-28T00:01:21.220Z,15.63
2022-11-28T00:03:48.969Z,15.32
2022-11-28T00:06:17.057Z,14.45
2022-11-28T00:08:44.657Z,13.45
2022-11-28T00:11:13.997Z,13.30
2022-11-28T00:13:41.854Z,15.38
2022-11-28T00:16:13.360Z,15.52
2022-11-28T00:18:40.752Z,13.65
2022-11-28T00:21:10.674Z,12.95
2022-11-28T00:23:38.211Z,15.35
2022-11-28T00:26:09.267Z,15.90
2022-11-28T00:28:36.680Z,13.82
2022-11-28T00:31:04.490Z,13.52
2022-11-28T00:33:33.521Z,13.95
2022-11-28T00:36:02.537Z,15.02
2022-11-28T00:38:29.896Z,13.02
2022-11-28T00:41:18.722Z,12.77
2022-11-28T00:43:47.917Z,12.15
2022-11-28T00:46:16.633Z,11.95
2022-11-28T00:48:44.393Z,12.18
2022-11-28T00:51:14.490Z,12.80
2022-11-28T00:53:43.771Z,11.82
2022-11-28T00:56:13.551Z,12.35
2022-11-28T00:58:41.419Z,11.12
2022-11-28T01:01:15.883Z,12.23
2022-11-28T01:03:44.065Z,11.38
2022-11-28T01:06:11.964Z,11.10
2022-11-28T01:08:38.952Z,11.18
2022-11-28T01:11:12.780Z,10.82
2022-11-28T01:13:40.755Z,10.75
2022-11-28T01:16:08.777Z,11.52
2022-11-28T01:18:36.660Z,10.23
2022-11-28T01:21:05.555Z,11.32
2022-11-28T01:23:32.680Z,11.18
2022-11-28T01:26:01.796Z,10.68
2022-11-28T01:28:29.562Z,11.43
2022-11-28T01:30:56.615Z,11.88
2022-11-28T01:33:23.640Z,11.85
2022-11-28T01:35:56.114Z,10.90
2022-11-28T01:38:23.408Z,10.77
2022-11-28T01:40:51.231Z,13.38
2022-11-28T01:43:18.737Z,11.75
2022-11-28T01:45:45.757Z,12.80
2022-11-28T01:48:18.253Z,11.45
2022-11-28T01:50:50.028Z,11.25
2022-11-28T01:53:17.784Z,11.52
2022-11-28T01:56:07.799Z,10.93
2022-11-28T01:58:39.128Z,11.82
2022-11-28T02:01:07.086Z,11.12
2022-11-28T02:03:43.165Z,10.52
2022-11-28T02:06:12.645Z,9.00
2022-11-28T02:08:40.033Z,10.55
2022-11-28T02:11:36.430Z,10.15
2022-11-28T02:14:15.630Z,11.38
2022-11-28T02:16:57.704Z,9.98
2022-11-28T02:19:53.113Z,9.82
2022-11-28T02:22:24.841Z,9.80
2022-11-28T02:25:26.409Z,10.13
2022-11-28T02:27:56.668Z,10.38
2022-11-28T02:31:02.489Z,10.82
2022-11-28T02:33:29.411Z,10.52
2022-11-28T02:36:13.874Z,10.00
2022-11-28T02:39:12.607Z,10.03
2022-11-28T02:41:54.154Z,10.70
2022-11-28T02:44:25.341Z,9.98
2022-11-28T02:46:59.849Z,10.98
2022-11-28T02:52:13.368Z,10.25
2022-11-28T02:54:43.028Z,11.65
2022-11-28T02:57:10.909Z,13.40
2022-11-28T02:59:37.841Z,14.55
2022-11-28T03:02:17.025Z,14.95
2022-11-28T03:04:47.182Z,13.38
2022-11-28T03:07:24.818Z,11.85
2022-11-28T03:10:16.351Z,12.18
2022-11-28T03:13:05.164Z,12.15
2022-11-28T03:15:50.112Z,11.57
2022-11-28T03:18:29.367Z,11.40
2022-11-28T03:21:07.893Z,10.90
2022-11-28T03:23:49.156Z,12.48
2022-11-28T03:26:29.845Z,11.57
2022-11-28T03:29:12.528Z,10.95
2022-11-28T03:31:45.452Z,11.07
2022-11-28T03:34:17.362Z,12.37
2022-11-28T03:36:50.669Z,10.45
2022-11-28T03:39:26.003Z,12.05
2022-11-28T03:42:03.336Z,11.43
2022-11-28T03:44:37.187Z,12.50
2022-11-28T03:47:06.369Z,12.20
2022-11-28T03:49:41.863Z,12.77
2022-11-28T03:52:21.289Z,11.18
2022-11-28T03:54:57.177Z,11.70
2022-11-28T03:57:38.986Z,11.07
2022-11-28T04:00:11.153Z,9.70
2022-11-28T04:03:07.963Z,9.32
2022-11-28T04:05:37.886Z,10.90
2022-11-28T04:08:17.633Z,12.07
2022-11-28T04:10:52.830Z,11.82
2022-11-28T04:13:28.944Z,10.73
2022-11-28T04:16:15.798Z,10.35
2022-11-28T04:19:08.153Z,10.40
2022-11-28T04:21:46.549Z,10.15
2022-11-28T04:24:22.967Z,10.73
2022-11-28T04:27:01.946Z,11.12
2022-11-28T04:29:34.522Z,11.00
2022-11-28T04:32:03.968Z,11.93
2022-11-28T04:34:33.420Z,10.00
2022-11-28T04:37:05.458Z,9.98
2022-11-28T04:39:37.970Z,9.55
2022-11-28T04:42:16.804Z,9.80
2022-11-28T04:44:53.549Z,10.15
2022-11-28T04:47:21.121Z,9.20
2022-11-28T04:49:48.610Z,10.43
2022-11-28T04:52:40.531Z,10.35
2022-11-28T04:55:30.798Z,12.35
2022-11-28T04:58:21.849Z,12.00
2022-11-28T05:00:52.474Z,11.27
2022-11-28T05:03:20.309Z,10.30
2022-11-28T05:05:49.782Z,10.05
2022-11-28T05:08:18.349Z,10.23
2022-11-28T05:10:46.036Z,11.43
2022-11-28T05:13:13.115Z,10.27
2022-11-28T05:15:40.486Z,9.40
2022-11-28T05:18:07.914Z,12.23
2022-11-28T05:20:36.368Z,10.90
2022-11-28T05:23:03.816Z,12.15
2022-11-28T05:25:30.856Z,11.15
2022-11-28T05:27:57.857Z,11.00
2022-11-28T05:30:25.105Z,11.40
2022-11-28T05:32:52.812Z,10.55
2022-11-28T05:35:19.794Z,12.05
2022-11-28T05:37:47.179Z,11.20
2022-11-28T05:40:14.257Z,11.82
2022-11-28T05:42:41.281Z,10.98
2022-11-28T05:45:09.063Z,12.77
2022-11-28T05:47:36.175Z,13.15
2022-11-28T05:50:04.244Z,13.80
2022-11-28T05:52:32.392Z,13.15
2022-11-28T05:55:00.381Z,13.62
2022-11-28T05:57:29.980Z,11.45
2022-11-28T05:59:57.589Z,12.32
2022-11-28T06:02:27.027Z,12.93
2022-11-28T06:04:54.522Z,13.55
2022-11-28T06:07:21.751Z,13.50
2022-11-28T06:09:48.856Z,12.60
2022-11-28T06:12:16.166Z,11.95
2022-11-28T06:14:43.201Z,13.57
2022-11-28T06:17:10.438Z,11.38
2022-11-28T06:19:37.780Z,12.15
2022-11-28T06:22:04.864Z,12.50
2022-11-28T06:24:31.864Z,12.20
2022-11-28T06:26:59.133Z,14.95
2022-11-28T06:29:28.865Z,15.52
2022-11-28T06:31:56.520Z,14.85
2022-11-28T06:34:24.101Z,14.20
2022-11-28T06:36:51.169Z,14.38
2022-11-28T06:39:18.240Z,14.45
2022-11-28T06:41:45.622Z,13.45
2022-11-28T06:44:14.660Z,12.43
2022-11-28T06:46:42.297Z,12.68
2022-11-28T06:49:15.802Z,12.70
2022-11-28T06:51:43.023Z,13.00
2022-11-28T06:54:10.294Z,11.52
2022-11-28T06:56:37.591Z,12.90
2022-11-28T06:59:04.613Z,13.62
2022-11-28T07:01:32.614Z,15.05
2022-11-28T07:03:59.879Z,13.77
2022-11-28T07:06:27.833Z,13.82
2022-11-28T07:08:58.915Z,13.48
2022-11-28T07:11:28.639Z,13.85
2022-11-28T07:13:57.028Z,12.18
2022-11-28T07:16:29.847Z,14.68
2022-11-28T07:18:58.187Z,15.55
2022-11-28T07:21:26.235Z,14.50
2022-11-28T07:23:53.508Z,14.87
2022-11-28T07:26:21.959Z,11.32
2022-11-28T07:28:50.053Z,14.77
2022-11-28T07:31:18.763Z,12.70
2022-11-28T07:33:48.035Z,12.85
2022-11-28T07:36:18.069Z,13.60
2022-11-28T07:38:54.206Z,13.75
2022-11-28T07:41:26.223Z,13.25
2022-11-28T07:43:59.229Z,12.18
2022-11-28T07:46:27.907Z,12.23
2022-11-28T07:48:55.339Z,12.85
2022-11-28T07:51:28.007Z,11.80
2022-11-28T07:53:55.743Z,10.65
2022-11-28T07:56:31.902Z,12.13
2022-11-28T07:59:07.400Z,11.88
2022-11-28T08:01:36.444Z,10.63
2022-11-28T08:04:08.996Z,11.65
2022-11-28T08:06:39.311Z,12.23
2022-11-28T08:09:07.245Z,10.40
2022-11-28T08:11:35.122Z,10.38
2022-11-28T08:14:03.234Z,11.35
2022-11-28T08:16:31.108Z,10.93
2022-11-28T08:19:02.091Z,10.98
2022-11-28T08:21:32.132Z,11.32
2022-11-28T08:24:01.989Z,12.48
2022-11-28T08:26:31.131Z,10.32
2022-11-28T08:28:59.563Z,10.93
2022-11-28T08:31:33.041Z,11.15
2022-11-28T08:34:02.748Z,10.00
2022-11-28T08:36:30.284Z,10.38
2022-11-28T08:41:46.592Z,10.18
2022-11-28T08:44:13.719Z,10.48
2022-11-28T08:46:40.789Z,10.05
2022-11-28T08:49:08.097Z,10.82
2022-11-28T08:51:35.199Z,10.93
2022-11-28T08:54:02.234Z,10.57
2022-11-28T08:56:29.608Z,10.30
2022-11-28T08:58:56.596Z,10.35
2022-11-28T09:01:26.133Z,10.38
2022-11-28T09:03:55.046Z,10.25
2022-11-28T09:06:23.404Z,10.77
2022-11-28T09:08:51.475Z,9.13
2022-11-28T09:11:21.440Z,9.57
2022-11-28T09:13:49.201Z,10.32
2022-11-28T09:16:16.394Z,9.10
2022-11-28T09:18:43.760Z,9.98
2022-11-28T09:21:13.287Z,11.32
2022-11-28T09:23:43.272Z,10.80
2022-11-28T09:26:12.797Z,10.77
2022-11-28T09:28:40.968Z,9.93
2022-11-28T09:31:08.391Z,10.57
2022-11-28T09:33:36.194Z,9.98
2022-11-28T09:36:11.127Z,11.23
2022-11-28T09:38:39.639Z,10.15
2022-11-28T09:41:21.959Z,9.57
2022-11-28T09:43:54.738Z,10.13
2022-11-28T09:46:28.972Z,10.73
2022-11-28T09:49:01.011Z,9.77
2022-11-28T09:51:52.734Z,10.65
2022-11-28T09:54:32.349Z,11.45
2022-11-28T09:57:02.106Z,11.52
2022-11-28T09:59:30.622Z,10.32
2022-11-28T10:02:05.052Z,10.73
2022-11-28T10:04:41.077Z,10.02
2022-11-28T10:07:39.400Z,10.15
2022-11-28T10:10:17.430Z,11.35
2022-11-28T10:12:54.019Z,11.40
2022-11-28T10:15:27.578Z,11.77
2022-11-28T10:18:25.600Z,10.45
2022-11-28T10:20:57.879Z,11.32
2022-11-28T10:23:38.314Z,10.63
2022-11-28T10:26:23.907Z,9.68
2022-11-28T10:28:55.589Z,12.40
2022-11-28T10:31:39.452Z,12.65
2022-11-28T10:34:16.655Z,10.70
2022-11-28T10:37:06.311Z,11.18
2022-11-28T10:39:37.421Z,10.50
2022-11-28T10:42:22.891Z,11.50
2022-11-28T10:44:55.963Z,11.15
2022-11-28T10:47:35.725Z,11.23
2022-11-28T10:50:14.829Z,11.60
2022-11-28T10:53:01.680Z,12.43
2022-11-28T10:55:37.690Z,11.52
2022-11-28T10:58:17.594Z,12.60
2022-11-28T11:00:49.295Z,12.18
2022-11-28T11:03:19.209Z,11.30
2022-11-28T11:05:46.232Z,12.05
2022-11-28T11:08:20.821Z,12.93
2022-11-28T11:11:07.190Z,14.73
2022-11-28T11:13:55.350Z,12.52
2022-11-28T11:16:23.015Z,12.35
2022-11-28T11:18:49.967Z,11.27
2022-11-28T11:21:19.562Z,14.55
2022-11-28T11:23:48.433Z,12.68
2022-11-28T11:26:32.342Z,13.73
2022-11-28T11:28:59.854Z,12.15
2022-11-28T11:31:32.066Z,12.77
2022-11-28T11:34:19.437Z,13.85
2022-11-28T11:36:46.606Z,12.65
2022-11-28T11:39:13.804Z,14.38
2022-11-28T11:42:12.171Z,14.05
2022-11-28T11:44:39.578Z,13.43
2022-11-28T11:47:09.055Z,14.93
2022-11-28T11:49:38.387Z,14.45
2022-11-28T11:52:13.420Z,14.52
2022-11-28T11:54:58.092Z,14.35
2022-11-28T11:57:46.920Z,14.90
2022-11-28T12:00:13.946Z,14.52
2022-11-28T12:03:11.569Z,14.35
2022-11-28T12:06:14.327Z,15.10
2022-11-28T12:08:46.642Z,15.65
2022-11-28T12:11:16.555Z,14.98
2022-11-28T12:13:43.965Z,15.05
2022-11-28T12:16:23.506Z,15.05
2022-11-28T12:19:02.921Z,14.90
2022-11-28T12:21:48.819Z,14.20
2022-11-28T12:24:24.595Z,13.52
2022-11-28T12:27:04.694Z,16.40
2022-11-28T12:29:38.669Z,16.17
2022-11-28T12:32:34.147Z,16.85
2022-11-28T12:35:23.423Z,14.50
2022-11-28T12:40:50.231Z,14.65
2022-11-28T12:43:51.338Z,15.38
2022-11-28T12:46:36.427Z,20.10
2022-11-28T12:49:17.515Z,20.00
2022-11-28T12:51:47.631Z,23.00
2022-11-28T12:54:42.406Z,24.25
2022-11-28T12:57:26.148Z,18.30
2022-11-28T13:00:10.259Z,14.38
2022-11-28T13:02:48.852Z,13.05
2022-11-28T13:05:30.829Z,14.48
2022-11-28T13:08:19.636Z,15.85
2022-11-28T13:11:24.373Z,15.98
2022-11-28T13:14:37.808Z,13.13
2022-11-28T13:17:29.009Z,15.20
2022-11-28T13:20:02.767Z,14.32
2022-11-28T13:22:52.510Z,14.82
2022-11-28T13:25:46.981Z,14.20
2022-11-28T13:28:28.349Z,14.15
2022-11-28T13:31:02.468Z,15.30
2022-11-28T13:33:48.305Z,14.95
2022-11-28T13:39:55.713Z,14.02
2022-11-28T13:43:03.005Z,15.05
2022-11-28T13:45:42.460Z,14.05
2022-11-28T13:49:13.323Z,15.40
2022-11-28T13:51:41.308Z,15.80
2022-11-28T13:54:18.157Z,15.98
2022-11-28T13:56:47.857Z,17.33
2022-11-28T13:59:20.355Z,15.20
2022-11-28T14:01:57.813Z,16.67
2022-11-28T14:04:27.853Z,13.35
2022-11-28T14:07:07.419Z,17.95
2022-11-28T14:10:01.551Z,17.55
2022-11-28T14:12:35.443Z,18.77
2022-11-28T14:15:27.867Z,18.73
2022-11-28T14:18:54.478Z,20.15
2022-11-28T14:21:22.774Z,16.95
2022-11-28T14:24:04.984Z,18.33
2022-11-28T14:26:39.611Z,17.45
2022-11-28T14:29:24.215Z,17.40
2022-11-28T14:32:21.731Z,18.00
2022-11-28T14:34:48.756Z,15.70
2022-11-28T14:37:21.884Z,15.35
2022-11-28T14:39:50.729Z,16.08
2022-11-28T14:42:44.163Z,17.17
2022-11-28T14:45:42.151Z,15.55
2022-11-28T14:48:24.701Z,16.60
2022-11-28T14:51:00.858Z,19.00
2022-11-28T14:53:34.709Z,16.83
2022-11-28T14:56:13.641Z,16.20
2022-11-28T14:58:47.259Z,18.40
2022-11-28T15:01:23.071Z,16.43
2022-11-28T15:04:03.559Z,18.27
2022-11-28T15:06:37.965Z,16.70
2022-11-28T15:09:21.434Z,16.35
2022-11-28T15:12:08.320Z,17.35
2022-11-28T15:14:37.722Z,16.30
2022-11-28T15:17:10.989Z,18.45
2022-11-28T15:19:49.811Z,16.75
2022-11-28T15:22:46.773Z,17.42
2022-11-28T15:25:23.152Z,16.42
2022-11-28T15:27:50.864Z,19.05
2022-11-28T15:30:23.882Z,18.80
2022-11-28T15:32:58.507Z,20.17
2022-11-28T15:35:26.967Z,19.50
2022-11-28T15:37:57.979Z,19.25
2022-11-28T15:40:29.839Z,19.48
2022-11-28T15:42:58.383Z,18.90
2022-11-28T15:45:29.776Z,21.50
2022-11-28T15:47:57.683Z,20.55
2022-11-28T15:50:28.324Z,18.40
2022-11-28T15:53:16.525Z,17.55
2022-11-28T15:55:44.058Z,18.37
2022-11-28T15:58:12.068Z,18.05
2022-11-28T16:00:45.912Z,17.92
2022-11-28T16:03:20.289Z,20.48
2022-11-28T16:05:49.240Z,19.85
2022-11-28T16:08:40.258Z,20.17
2022-11-28T16:11:09.824Z,20.37
2022-11-28T16:13:40.495Z,18.73
2022-11-28T16:16:21.927Z,20.83
2022-11-28T16:18:57.697Z,20.15
2022-11-28T16:21:53.392Z,18.83
2022-11-28T16:24:27.400Z,17.98
2022-11-28T16:26:59.953Z,17.77
2022-11-28T16:29:34.812Z,18.10
2022-11-28T16:32:21.830Z,19.98
2022-11-28T16:34:52.050Z,18.17
2022-11-28T16:37:25.575Z,18.67
2022-11-28T16:40:06.359Z,19.33
2022-11-28T16:42:35.019Z,16.20
2022-11-28T16:45:17.492Z,19.27
2022-11-28T16:47:45.692Z,17.60
2022-11-28T16:50:26.621Z,16.55
2022-11-28T16:52:55.537Z,18.02
2022-11-28T16:55:41.454Z,18.25
2022-11-28T16:58:16.459Z,17.95
2022-11-28T17:00:51.450Z,18.58
2022-11-28T17:03:43.562Z,18.23
2022-11-28T17:06:34.465Z,19.52
2022-11-28T17:09:01.848Z,19.55
2022-11-28T17:11:34.168Z,21.10
2022-11-28T17:14:02.729Z,18.98
2022-11-28T17:16:33.398Z,19.42
2022-11-28T17:19:00.582Z,23.33
2022-11-28T17:21:40.543Z,19.58
2022-11-28T17:24:26.419Z,22.62
2022-11-28T17:26:54.462Z,20.60
2022-11-28T17:29:22.791Z,21.73
2022-11-28T17:31:50.344Z,20.95
2022-11-28T17:34:30.792Z,21.27
2022-11-28T17:37:02.790Z,18.65
2022-11-28T17:39:29.870Z,18.17
2022-11-28T17:41:57.639Z,21.25
2022-11-28T17:44:31.032Z,22.85
2022-11-28T17:47:01.665Z,20.30
2022-11-28T17:49:30.807Z,20.55
2022-11-28T17:51:58.668Z,22.20
2022-11-28T17:54:26.606Z,20.45
2022-11-28T17:56:54.850Z,21.40
2022-11-28T17:59:24.271Z,19.77
2022-11-28T18:01:51.424Z,22.85
2022-11-28T18:04:23.473Z,21.45
2022-11-28T18:06:50.649Z,20.27
2022-11-28T18:09:17.637Z,20.98
2022-11-28T18:11:46.784Z,21.65
2022-11-28T18:14:14.472Z,22.42
2022-11-28T18:16:43.891Z,23.33
2022-11-28T18:19:11.445Z,23.02
2022-11-28T18:21:39.005Z,19.65
2022-11-28T18:24:06.363Z,21.73
2022-11-28T18:26:33.696Z,20.95
2022-11-28T18:29:00.904Z,22.35
2022-11-28T18:31:29.928Z,21.52
2022-11-28T18:34:02.197Z,22.55
2022-11-28T18:36:35.255Z,19.23
2022-11-28T18:39:07.328Z,22.27
2022-11-28T18:41:34.756Z,20.70
2022-11-28T18:44:04.661Z,21.58
2022-11-28T18:46:34.127Z,20.75
2022-11-28T18:49:01.692Z,21.27
2022-11-28T18:51:32.043Z,20.75
2022-11-28T18:53:59.472Z,22.42
2022-11-28T18:56:27.093Z,22.50
2022-11-28T18:58:56.843Z,22.13
2022-11-28T19:01:31.523Z,19.73
2022-11-28T19:04:02.141Z,22.13
2022-11-28T19:06:30.476Z,18.75
2022-11-28T19:08:59.863Z,21.15
2022-11-28T19:11:28.755Z,20.42
2022-11-28T19:13:57.502Z,20.75
2022-11-28T19:16:27.456Z,19.58
2022-11-28T19:18:55.601Z,21.23
2022-11-28T19:21:27.923Z,21.12
2022-11-28T19:23:56.742Z,19.50
2022-11-28T19:26:25.921Z,20.48
2022-11-28T19:28:54.118Z,19.33
2022-11-28T19:31:23.893Z,20.75
2022-11-28T19:34:00.465Z,20.02
2022-11-28T19:36:31.808Z,19.60
2022-11-28T19:39:00.194Z,19.70
2022-11-28T19:41:28.459Z,19.92
2022-11-28T19:43:56.183Z,21.25
2022-11-28T19:46:23.836Z,21.62
2022-11-28T19:48:51.767Z,20.90
2022-11-28T19:51:20.030Z,21.00
2022-11-28T19:53:47.913Z,22.52
2022-11-28T19:56:18.078Z,22.60
2022-11-28T19:58:45.988Z,22.73
2022-11-28T20:01:16.295Z,20.85
2022-11-28T20:03:47.660Z,20.33
2022-11-28T20:06:19.202Z,20.42
2022-11-28T20:08:48.267Z,20.67
2022-11-28T20:11:24.252Z,19.62
2022-11-28T20:14:06.811Z,20.17
2022-11-28T20:16:36.121Z,19.65
2022-11-28T20:19:05.279Z,20.90
2022-11-28T20:21:34.173Z,20.35
2022-11-28T20:24:04.671Z,20.98
2022-11-28T20:26:37.741Z,20.83
2022-11-28T20:29:05.493Z,21.80
2022-11-28T20:31:36.573Z,19.12
2022-11-28T20:34:04.871Z,19.50
2022-11-28T20:36:32.503Z,19.30
2022-11-28T20:39:01.166Z,18.83
2022-11-28T20:41:29.022Z,19.75
2022-11-28T20:43:56.504Z,19.77
2022-11-28T20:46:28.062Z,19.67
2022-11-28T20:48:57.911Z,20.62
2022-11-28T20:51:27.353Z,19.67
2022-11-28T20:53:56.147Z,21.42
2022-11-28T20:56:41.830Z,19.05
2022-11-28T20:59:19.150Z,20.52
2022-11-28T21:01:46.195Z,19.80
2022-11-28T21:04:15.491Z,19.05
2022-11-28T21:06:44.076Z,20.17
2022-11-28T21:09:13.610Z,19.90
2022-11-28T21:11:58.117Z,20.37
2022-11-28T21:14:28.696Z,21.67
2022-11-28T21:16:56.121Z,18.83
2022-11-28T21:19:23.298Z,20.52
2022-11-28T21:21:50.661Z,20.77
2022-11-28T21:24:17.867Z,20.65
2022-11-28T21:26:52.633Z,20.33
2022-11-28T21:29:22.226Z,19.40
2022-11-28T21:31:49.405Z,19.33
2022-11-28T21:34:17.576Z,22.48
2022-11-28T21:36:45.455Z,20.35
2022-11-28T21:39:18.835Z,21.62
2022-11-28T21:41:46.611Z,20.90
2022-11-28T21:44:13.830Z,21.17
2022-11-28T21:46:40.982Z,19.30
2022-11-28T21:49:08.541Z,19.67
2022-11-28T21:51:35.963Z,18.70
2022-11-28T21:54:02.978Z,19.67
2022-11-28T21:56:31.352Z,18.45
2022-11-28T21:58:58.499Z,20.05
2022-11-28T22:01:25.619Z,18.12
2022-11-28T22:03:54.465Z,18.83
2022-11-28T22:06:25.608Z,18.80
2022-11-28T22:08:54.165Z,19.30
2022-11-28T22:11:22.722Z,19.25
2022-11-28T22:13:50.621Z,18.95
2022-11-28T22:16:22.672Z,18.98
2022-11-28T22:18:51.503Z,19.65
2022-11-28T22:24:08.308Z,18.12
2022-11-28T22:26:36.255Z,17.77
2022-11-28T22:29:04.172Z,20.10
2022-11-28T22:31:32.167Z,18.17
2022-11-28T22:33:59.754Z,18.60
2022-11-28T22:36:26.914Z,18.70
2022-11-28T22:38:55.573Z,19.15
2022-11-28T22:41:28.886Z,18.73
2022-11-28T22:44:00.233Z,17.60
2022-11-28T22:46:29.138Z,19.02
2022-11-28T22:49:00.375Z,18.62
2022-11-28T22:51:28.955Z,21.12
2022-11-28T22:53:57.763Z,18.83
2022-11-28T22:56:26.274Z,18.75
2022-11-28T22:58:54.691Z,18.23
2022-11-28T23:01:32.551Z,18.17
2022-11-28T23:04:00.433Z,19.10
2022-11-28T23:06:30.581Z,17.55
2022-11-28T23:08:59.413Z,17.20
2022-11-28T23:11:30.347Z,19.42
2022-11-28T23:13:59.185Z,19.70
2022-11-28T23:16:33.645Z,19.40
2022-11-28T23:19:05.780Z,18.33
2022-11-28T23:21:36.003Z,19.33
2022-11-28T23:24:04.177Z,17.80
2022-11-28T23:26:33.448Z,18.65
2022-11-28T23:29:04.787Z,18.65
2022-11-28T23:31:35.676Z,18.05
2022-11-28T23:34:03.875Z,17.35
2022-11-28T23:36:41.873Z,17.75
2022-11-28T23:39:21.528Z,17.55
2022-11-28T23:41:49.136Z,16.50
2022-11-28T23:44:18.275Z,18.27
2022-11-28T23:46:46.461Z,16.98
2022-11-28T23:49:14.035Z,16.67
2022-11-28T23:51:41.405Z,17.12
2022-11-28T23:54:09.698Z,17.73
2022-11-28T23:56:38.508Z,16.20
2022-11-28T23:59:07.979Z,15.57
